createdAt,value
2022-08-18T00:00:18.357Z,9.661533
2022-08-18T00:01:14.588Z,9.661627
2022-08-18T00:02:14.529Z,9.661717
2022-08-18T00:03:53.488Z,9.661618
2022-08-18T00:04:25.201Z,9.661676
2022-08-18T00:05:15.344Z,9.661323
2022-08-18T00:06:14.337Z,9.661354
2022-08-18T00:07:14.345Z,9.661412
2022-08-18T00:08:14.345Z,9.661572
2022-08-18T00:09:14.338Z,9.661741
2022-08-18T00:10:18.224Z,9.661193
2022-08-18T00:11:14.327Z,9.661582
2022-08-18T00:12:14.326Z,9.661488
2022-08-18T00:13:14.315Z,9.661572
2022-08-18T00:14:22.193Z,9.661359
2022-08-18T00:15:14.294Z,9.661217
2022-08-18T00:16:14.291Z,9.661091
2022-08-18T00:17:14.289Z,9.661134
2022-08-18T00:18:14.286Z,9.661198
2022-08-18T00:19:14.276Z,9.661241
2022-08-18T00:20:14.272Z,9.661386
2022-08-18T00:21:14.257Z,9.661667
2022-08-18T00:22:15.319Z,9.661483
2022-08-18T00:23:14.268Z,9.661366
2022-08-18T00:24:14.266Z,9.661024
2022-08-18T00:25:14.239Z,9.661105
2022-08-18T00:26:14.245Z,9.661485
2022-08-18T00:27:14.226Z,9.661519
2022-08-18T00:28:14.234Z,9.661515
2022-08-18T00:29:14.234Z,9.661518
2022-08-18T00:30:14.201Z,9.661497
2022-08-18T00:31:14.221Z,9.661543
2022-08-18T00:32:14.194Z,9.661501
2022-08-18T00:33:14.207Z,9.661494
2022-08-18T00:34:14.221Z,9.661475
2022-08-18T00:35:14.198Z,9.661512
2022-08-18T00:36:14.164Z,9.661501
2022-08-18T00:37:14.163Z,9.661502
2022-08-18T00:38:24.204Z,9.661543
2022-08-18T00:39:15.176Z,9.661529
2022-08-18T00:40:14.263Z,9.661456
2022-08-18T00:41:14.145Z,9.661504
2022-08-18T00:42:14.133Z,9.661520
2022-08-18T00:43:15.156Z,9.661542
2022-08-18T00:44:14.126Z,9.661480
2022-08-18T00:45:14.133Z,9.661535
2022-08-18T00:46:14.120Z,9.661537
2022-08-18T00:47:14.110Z,9.661537
2022-08-18T00:48:15.113Z,9.661508
2022-08-18T00:49:14.227Z,9.661531
2022-08-18T00:50:15.473Z,9.661597
2022-08-18T00:51:14.096Z,9.661495
2022-08-18T00:52:14.077Z,9.661509
2022-08-18T00:53:14.069Z,9.661538
2022-08-18T00:54:14.092Z,9.661522
2022-08-18T00:55:15.076Z,9.661543
2022-08-18T00:56:14.052Z,9.661503
2022-08-18T00:57:14.043Z,9.661487
2022-08-18T00:58:14.036Z,9.661484
2022-08-18T00:59:14.045Z,9.661551
2022-08-18T01:00:14.162Z,9.661436
2022-08-18T01:01:14.149Z,9.661606
2022-08-18T01:02:14.022Z,9.661564
2022-08-18T01:03:14.019Z,9.661574
2022-08-18T01:04:14.004Z,9.661625
2022-08-18T01:05:14.114Z,9.661573
2022-08-18T01:06:14.004Z,9.661599
2022-08-18T01:07:13.991Z,9.661567
2022-08-18T01:08:14.002Z,9.661545
2022-08-18T01:09:14.000Z,9.661456
2022-08-18T01:10:13.973Z,9.661609
2022-08-18T01:11:14.019Z,9.661581
2022-08-18T01:12:44.086Z,9.661572
2022-08-18T01:13:14.971Z,9.661622
2022-08-18T01:14:13.950Z,9.661627
2022-08-18T01:15:28.003Z,9.661592
2022-08-18T01:16:15.064Z,9.661588
2022-08-18T01:17:13.946Z,9.661569
2022-08-18T01:18:13.918Z,9.661541
2022-08-18T01:19:13.924Z,9.661506
2022-08-18T01:20:13.921Z,9.661566
2022-08-18T01:21:13.921Z,9.661550
2022-08-18T01:22:13.942Z,9.661530
2022-08-18T01:23:13.926Z,9.661570
2022-08-18T01:24:16.447Z,9.661590
2022-08-18T01:25:13.895Z,9.661634
2022-08-18T01:26:13.905Z,9.661645
2022-08-18T01:27:13.919Z,9.661572
2022-08-18T01:28:13.866Z,9.661564
2022-08-18T01:29:18.880Z,9.661528
2022-08-18T01:30:14.875Z,9.661512
2022-08-18T01:31:13.867Z,9.661621
2022-08-18T01:32:13.855Z,9.661691
2022-08-18T01:33:13.893Z,9.661581
2022-08-18T01:34:13.865Z,9.661678
2022-08-18T01:35:13.856Z,9.661561
2022-08-18T01:36:13.839Z,9.661452
2022-08-18T01:37:13.840Z,9.661459
2022-08-18T01:38:13.849Z,9.661507
2022-08-18T01:39:13.804Z,9.661601
2022-08-18T01:41:17.487Z,9.661582
2022-08-18T01:41:27.719Z,9.661608
2022-08-18T01:42:15.837Z,9.661706
2022-08-18T01:43:13.799Z,9.661684
2022-08-18T01:44:13.819Z,9.661517
2022-08-18T01:45:13.780Z,9.661506
2022-08-18T01:46:13.785Z,9.661401
2022-08-18T01:47:13.770Z,9.661474
2022-08-18T01:48:13.766Z,9.661488
2022-08-18T01:49:13.781Z,9.661487
2022-08-18T01:50:13.763Z,9.661689
2022-08-18T01:51:13.743Z,9.661575
2022-08-18T01:52:13.751Z,9.661699
2022-08-18T01:53:13.735Z,9.661576
2022-08-18T01:54:13.728Z,9.661654
2022-08-18T01:55:14.621Z,9.661655
2022-08-18T01:56:13.723Z,9.661507
2022-08-18T01:57:13.721Z,9.661514
2022-08-18T01:58:13.720Z,9.661482
2022-08-18T01:59:13.698Z,9.661374
2022-08-18T02:00:13.735Z,9.661228
2022-08-18T02:01:13.712Z,9.661370
2022-08-18T02:02:18.546Z,9.661339
2022-08-18T02:03:13.673Z,9.661266
2022-08-18T02:04:33.712Z,9.661427
2022-08-18T02:05:15.702Z,9.661692
2022-08-18T02:06:14.723Z,9.661736
2022-08-18T02:07:13.665Z,9.661872
2022-08-18T02:08:13.656Z,9.661850
2022-08-18T02:09:13.645Z,9.661900
2022-08-18T02:10:16.241Z,9.661598
2022-08-18T02:11:13.754Z,9.661467
2022-08-18T02:12:13.628Z,9.661498
2022-08-18T02:13:13.630Z,9.661455
2022-08-18T02:14:13.619Z,9.661611
2022-08-18T02:15:13.624Z,9.661826
2022-08-18T02:16:13.623Z,9.661686
2022-08-18T02:17:13.603Z,9.661955
2022-08-18T02:18:13.613Z,9.661909
2022-08-18T02:19:14.574Z,9.661601
2022-08-18T02:20:13.580Z,9.661439
2022-08-18T02:21:13.581Z,9.661372
2022-08-18T02:22:13.689Z,9.661618
2022-08-18T02:23:13.549Z,9.661873
2022-08-18T02:24:13.560Z,9.661723
2022-08-18T02:25:13.551Z,9.661895
2022-08-18T02:26:14.554Z,9.661867
2022-08-18T02:27:13.657Z,9.661487
2022-08-18T02:28:13.537Z,9.661885
2022-08-18T02:29:13.537Z,9.661801
2022-08-18T02:30:13.545Z,9.661530
2022-08-18T02:31:13.519Z,9.661428
2022-08-18T02:32:13.507Z,9.661486
2022-08-18T02:33:13.530Z,9.661655
2022-08-18T02:34:13.508Z,9.661454
2022-08-18T02:35:13.501Z,9.661399
2022-08-18T02:36:13.496Z,9.661723
2022-08-18T02:37:15.533Z,9.661513
2022-08-18T02:38:14.512Z,9.661613
2022-08-18T02:39:13.492Z,9.661669
2022-08-18T02:40:14.718Z,9.661485
2022-08-18T02:41:13.451Z,9.661742
2022-08-18T02:42:13.478Z,9.661793
2022-08-18T02:43:13.467Z,9.661701
2022-08-18T02:44:13.461Z,9.661772
2022-08-18T02:45:13.438Z,9.661530
2022-08-18T02:46:13.435Z,9.661512
2022-08-18T02:47:13.430Z,9.661243
2022-08-18T02:48:13.438Z,9.661348
2022-08-18T02:49:13.442Z,9.661226
2022-08-18T02:50:13.415Z,9.661299
2022-08-18T02:51:13.396Z,9.661711
2022-08-18T02:52:13.401Z,9.661469
2022-08-18T02:53:13.414Z,9.661231
2022-08-18T02:54:13.422Z,9.661521
2022-08-18T02:55:13.398Z,9.661624
2022-08-18T02:56:13.388Z,9.661526
2022-08-18T02:57:13.364Z,9.661508
2022-08-18T02:58:13.391Z,9.661530
2022-08-18T02:59:13.382Z,9.661552
2022-08-18T03:00:13.351Z,9.661635
2022-08-18T03:01:13.384Z,9.661507
2022-08-18T03:02:13.330Z,9.661615
2022-08-18T03:03:14.373Z,9.661613
2022-08-18T03:04:13.325Z,9.661590
2022-08-18T03:05:14.806Z,9.661565
2022-08-18T03:06:13.339Z,9.661756
2022-08-18T03:07:13.328Z,9.661572
2022-08-18T03:08:13.329Z,9.661543
2022-08-18T03:09:13.329Z,9.661757
2022-08-18T03:10:33.260Z,9.661530
2022-08-18T03:11:13.288Z,9.661469
2022-08-18T03:12:13.294Z,9.661479
2022-08-18T03:13:13.307Z,9.661559
2022-08-18T03:14:13.317Z,9.661554
2022-08-18T03:15:13.276Z,9.661615
2022-08-18T03:16:13.284Z,9.661666
2022-08-18T03:17:13.270Z,9.661599
2022-08-18T03:18:13.260Z,9.661509
2022-08-18T03:19:13.248Z,9.661552
2022-08-18T03:20:13.356Z,9.661436
2022-08-18T03:21:13.246Z,9.661438
2022-08-18T03:22:27.654Z,9.661535
2022-08-18T03:23:14.236Z,9.661505
2022-08-18T03:24:15.819Z,9.661531
2022-08-18T03:25:13.239Z,9.661667
2022-08-18T03:26:13.222Z,9.661627
2022-08-18T03:27:13.200Z,9.661613
2022-08-18T03:28:13.209Z,9.661708
2022-08-18T03:29:13.187Z,9.661716
2022-08-18T03:30:13.212Z,9.661662
2022-08-18T03:31:13.203Z,9.661583
2022-08-18T03:32:13.186Z,9.661592
2022-08-18T03:33:13.178Z,9.661589
2022-08-18T03:34:13.173Z,9.661613
2022-08-18T03:35:13.151Z,9.661784
2022-08-18T03:36:13.186Z,9.661837
2022-08-18T03:37:13.143Z,9.661652
2022-08-18T03:38:13.161Z,9.661448
2022-08-18T03:39:13.144Z,9.661137
2022-08-18T03:40:13.190Z,9.660799
2022-08-18T03:41:13.136Z,9.660994
2022-08-18T03:42:13.155Z,9.661393
2022-08-18T03:43:49.471Z,9.661733
2022-08-18T03:44:14.122Z,9.661502
2022-08-18T03:45:17.762Z,9.661651
2022-08-18T03:46:14.147Z,9.661394
2022-08-18T03:47:13.153Z,9.661325
2022-08-18T03:48:13.216Z,9.661407
2022-08-18T03:49:13.087Z,9.661579
2022-08-18T03:50:14.248Z,9.661480
2022-08-18T03:51:13.115Z,9.661550
2022-08-18T03:52:13.129Z,9.661336
2022-08-18T03:53:13.107Z,9.661332
2022-08-18T03:54:13.079Z,9.661358
2022-08-18T03:55:13.058Z,9.661535
2022-08-18T03:56:13.056Z,9.661599
2022-08-18T03:57:13.057Z,9.661702
2022-08-18T03:58:13.163Z,9.661742
2022-08-18T03:59:13.042Z,9.661838
2022-08-18T04:00:13.041Z,9.661880
2022-08-18T04:01:13.109Z,9.661705
2022-08-18T04:02:14.008Z,9.661262
2022-08-18T04:03:13.021Z,9.661084
2022-08-18T04:04:13.123Z,9.661180
2022-08-18T04:05:12.997Z,9.661576
2022-08-18T04:06:13.014Z,9.661751
2022-08-18T04:07:12.988Z,9.661810
2022-08-18T04:08:12.994Z,9.661667
2022-08-18T04:09:13.008Z,9.661769
2022-08-18T04:10:19.086Z,9.661852
2022-08-18T04:11:13.978Z,9.661961
2022-08-18T04:12:16.345Z,9.661962
2022-08-18T04:13:12.982Z,9.661942
2022-08-18T04:14:12.952Z,9.661787
2022-08-18T04:15:12.994Z,9.661643
2022-08-18T04:16:12.955Z,9.661696
2022-08-18T04:17:12.957Z,9.661870
2022-08-18T04:18:12.945Z,9.661471
2022-08-18T04:19:12.936Z,9.661459
2022-08-18T04:20:12.946Z,9.661630
2022-08-18T04:21:12.926Z,9.661598
2022-08-18T04:22:17.294Z,9.661919
2022-08-18T04:23:13.914Z,9.661793
2022-08-18T04:24:12.896Z,9.661412
2022-08-18T04:25:12.891Z,9.661563
2022-08-18T04:26:19.254Z,9.661674
2022-08-18T04:27:12.925Z,9.661713
2022-08-18T04:28:12.882Z,9.661592
2022-08-18T04:29:12.878Z,9.661450
2022-08-18T04:30:12.898Z,9.661587
2022-08-18T04:31:12.886Z,9.661665
2022-08-18T04:32:12.882Z,9.661638
2022-08-18T04:33:12.846Z,9.661499
2022-08-18T04:34:13.855Z,9.661572
2022-08-18T04:35:14.262Z,9.661543
2022-08-18T04:36:12.829Z,9.661675
2022-08-18T04:37:12.848Z,9.661426
2022-08-18T04:38:13.828Z,9.661588
2022-08-18T04:39:12.816Z,9.661403
2022-08-18T04:40:12.947Z,9.661577
2022-08-18T04:41:12.809Z,9.661634
2022-08-18T04:42:12.819Z,9.661495
2022-08-18T04:43:12.787Z,9.661657
2022-08-18T04:44:12.799Z,9.661517
2022-08-18T04:45:12.775Z,9.661463
2022-08-18T04:46:12.798Z,9.661511
2022-08-18T04:47:12.778Z,9.661493
2022-08-18T04:48:12.885Z,9.661512
2022-08-18T04:49:12.761Z,9.661458
2022-08-18T04:50:12.752Z,9.661579
2022-08-18T04:51:12.746Z,9.661556
2022-08-18T04:52:34.135Z,9.661502
2022-08-18T04:53:13.846Z,9.661523
2022-08-18T04:54:12.792Z,9.661285
2022-08-18T04:55:12.723Z,9.661479
2022-08-18T04:56:12.740Z,9.661517
2022-08-18T04:57:12.719Z,9.661376
2022-08-18T04:58:12.698Z,9.661403
2022-08-18T04:59:12.837Z,9.661456
2022-08-18T05:00:12.693Z,9.661509
2022-08-18T05:01:12.711Z,9.661589
2022-08-18T05:02:14.773Z,9.661501
2022-08-18T05:03:13.675Z,9.661515
2022-08-18T05:04:12.785Z,9.661510
2022-08-18T05:05:12.670Z,9.661526
2022-08-18T05:06:12.658Z,9.661557
2022-08-18T05:07:13.654Z,9.661597
2022-08-18T05:08:12.651Z,9.661549
2022-08-18T05:09:12.639Z,9.661525
2022-08-18T05:10:12.753Z,9.661478
2022-08-18T05:11:12.648Z,9.661477
2022-08-18T05:12:12.641Z,9.661534
2022-08-18T05:13:12.620Z,9.661494
2022-08-18T05:14:12.614Z,9.661495
2022-08-18T05:15:12.635Z,9.661518
2022-08-18T05:16:18.162Z,9.661564
2022-08-18T05:17:12.596Z,9.661531
2022-08-18T05:18:13.947Z,9.661511
2022-08-18T05:19:12.591Z,9.661506
2022-08-18T05:20:12.587Z,9.661524
2022-08-18T05:21:12.601Z,9.661510
2022-08-18T05:22:12.591Z,9.661541
2022-08-18T05:23:12.580Z,9.661490
2022-08-18T05:24:12.576Z,9.661590
2022-08-18T05:25:12.574Z,9.661600
2022-08-18T05:26:12.682Z,9.661587
2022-08-18T05:27:12.534Z,9.661580
2022-08-18T05:28:12.560Z,9.661695
2022-08-18T05:29:18.628Z,9.661676
2022-08-18T05:30:13.543Z,9.661407
2022-08-18T05:31:13.951Z,9.661442
2022-08-18T05:32:40.995Z,9.661407
2022-08-18T05:33:13.509Z,9.661504
2022-08-18T05:34:12.513Z,9.661530
2022-08-18T05:35:12.520Z,9.661708
2022-08-18T05:36:12.495Z,9.661823
2022-08-18T05:37:12.507Z,9.661692
2022-08-18T05:38:12.487Z,9.661659
2022-08-18T05:39:12.493Z,9.661644
2022-08-18T05:40:12.562Z,9.661489
2022-08-18T05:41:13.765Z,9.661524
2022-08-18T05:42:12.463Z,9.661609
2022-08-18T05:43:12.496Z,9.661558
2022-08-18T05:44:12.460Z,9.661523
2022-08-18T05:45:12.457Z,9.661539
2022-08-18T05:46:12.458Z,9.661601
2022-08-18T05:47:12.426Z,9.661632
2022-08-18T05:48:12.463Z,9.661600
2022-08-18T05:49:12.419Z,9.661564
2022-08-18T05:50:13.412Z,9.661637
2022-08-18T05:51:12.412Z,9.661645
2022-08-18T05:52:12.414Z,9.661646
2022-08-18T05:53:13.582Z,9.661633
2022-08-18T05:54:12.439Z,9.661547
2022-08-18T05:55:12.402Z,9.661580
2022-08-18T05:56:12.425Z,9.661647
2022-08-18T05:57:12.377Z,9.661745
2022-08-18T05:58:12.387Z,9.661344
2022-08-18T05:59:12.387Z,9.661603
2022-08-18T06:00:12.374Z,9.661508
2022-08-18T06:01:12.371Z,9.661632
2022-08-18T06:02:12.362Z,9.661602
2022-08-18T06:03:12.425Z,9.661757
2022-08-18T06:04:12.339Z,9.661690
2022-08-18T06:05:12.445Z,9.661562
2022-08-18T06:06:13.164Z,9.662066
2022-08-18T06:07:12.354Z,9.661883
2022-08-18T06:08:12.322Z,9.661731
2022-08-18T06:09:12.308Z,9.661674
2022-08-18T06:10:12.348Z,9.661651
2022-08-18T06:11:17.287Z,9.661658
2022-08-18T06:12:13.314Z,9.661662
2022-08-18T06:13:12.294Z,9.661588
2022-08-18T06:14:12.280Z,9.661601
2022-08-18T06:15:12.276Z,9.661561
2022-08-18T06:16:12.306Z,9.661556
2022-08-18T06:17:12.272Z,9.661617
2022-08-18T06:18:12.266Z,9.661715
2022-08-18T06:19:12.270Z,9.661762
2022-08-18T06:20:12.259Z,9.661571
2022-08-18T06:21:12.356Z,9.661383
2022-08-18T06:22:12.252Z,9.661242
2022-08-18T06:23:12.248Z,9.661302
2022-08-18T06:24:12.246Z,9.661419
2022-08-18T06:25:12.227Z,9.661222
2022-08-18T06:26:12.220Z,9.661260
2022-08-18T06:27:12.334Z,9.661272
2022-08-18T06:28:12.225Z,9.661429
2022-08-18T06:29:12.198Z,9.661526
2022-08-18T06:30:12.186Z,9.661477
2022-08-18T06:31:12.198Z,9.661339
2022-08-18T06:32:12.286Z,9.661545
2022-08-18T06:33:12.181Z,9.661646
2022-08-18T06:34:12.168Z,9.661523
2022-08-18T06:35:12.176Z,9.661608
2022-08-18T06:36:12.171Z,9.661617
2022-08-18T06:37:12.166Z,9.661598
2022-08-18T06:38:12.180Z,9.661674
2022-08-18T06:39:12.140Z,9.661798
2022-08-18T06:40:12.196Z,9.661684
2022-08-18T06:41:42.064Z,9.661656
2022-08-18T06:42:13.149Z,9.661716
2022-08-18T06:43:12.156Z,9.661518
2022-08-18T06:44:12.129Z,9.661572
2022-08-18T06:45:12.128Z,9.661506
2022-08-18T06:46:12.114Z,9.661651
2022-08-18T06:47:12.105Z,9.661641
2022-08-18T06:48:15.244Z,9.661579
2022-08-18T06:49:12.256Z,9.661572
2022-08-18T06:50:12.093Z,9.661671
2022-08-18T06:51:12.099Z,9.661654
2022-08-18T06:52:12.073Z,9.661671
2022-08-18T06:53:25.902Z,9.661426
2022-08-18T06:54:13.091Z,9.661725
2022-08-18T06:55:12.063Z,9.661530
2022-08-18T06:56:26.504Z,9.661402
2022-08-18T06:57:13.049Z,9.661178
2022-08-18T06:58:12.049Z,9.661475
2022-08-18T06:59:12.043Z,9.661709
2022-08-18T07:00:12.179Z,9.661518
2022-08-18T07:01:12.108Z,9.661596
2022-08-18T07:02:12.023Z,9.661550
2022-08-18T07:03:12.016Z,9.661764
2022-08-18T07:04:12.012Z,9.661701
2022-08-18T07:05:12.956Z,9.661627
2022-08-18T07:06:12.005Z,9.661517
2022-08-18T07:07:11.995Z,9.661449
2022-08-18T07:08:11.997Z,9.661409
2022-08-18T07:09:11.979Z,9.661495
2022-08-18T07:10:11.978Z,9.661504
2022-08-18T07:11:12.099Z,9.661475
2022-08-18T07:12:11.969Z,9.661554
2022-08-18T07:13:11.953Z,9.661500
2022-08-18T07:14:16.632Z,9.661443
2022-08-18T07:15:11.957Z,9.661436
2022-08-18T07:16:11.967Z,9.661503
2022-08-18T07:17:11.951Z,9.661450
2022-08-18T07:18:11.989Z,9.661476
2022-08-18T07:19:11.935Z,9.661463
2022-08-18T07:20:11.915Z,9.661431
2022-08-18T07:21:11.903Z,9.661403
2022-08-18T07:22:12.071Z,9.661366
2022-08-18T07:23:11.914Z,9.661410
2022-08-18T07:24:24.999Z,9.661379
2022-08-18T07:25:13.903Z,9.661401
2022-08-18T07:26:11.878Z,9.661439
2022-08-18T07:27:11.906Z,9.661423
2022-08-18T07:28:11.888Z,9.661430
2022-08-18T07:29:11.871Z,9.661398
2022-08-18T07:30:15.765Z,9.661429
2022-08-18T07:31:16.877Z,9.661401
2022-08-18T07:32:21.264Z,9.661302
2022-08-18T07:33:13.848Z,9.661394
2022-08-18T07:34:11.830Z,9.661469
2022-08-18T07:35:11.824Z,9.661375
2022-08-18T07:36:11.864Z,9.661406
2022-08-18T07:37:11.821Z,9.661460
2022-08-18T07:38:40.642Z,9.661419
2022-08-18T07:39:13.826Z,9.661342
2022-08-18T07:40:11.877Z,9.661423
2022-08-18T07:41:11.821Z,9.661484
2022-08-18T07:42:11.782Z,9.661539
2022-08-18T07:43:11.805Z,9.661596
2022-08-18T07:44:13.924Z,9.661554
2022-08-18T07:45:12.782Z,9.661484
2022-08-18T07:46:11.796Z,9.661474
2022-08-18T07:47:11.767Z,9.661620
2022-08-18T07:48:34.881Z,9.661757
2022-08-18T07:49:12.793Z,9.661722
2022-08-18T07:50:27.289Z,9.662014
2022-08-18T07:51:13.751Z,9.661914
2022-08-18T07:52:14.638Z,9.661743
2022-08-18T07:53:12.766Z,9.661597
2022-08-18T07:54:31.080Z,9.661578
2022-08-18T07:55:12.746Z,9.661558
2022-08-18T07:56:11.728Z,9.661426
2022-08-18T07:57:15.238Z,9.661551
2022-08-18T07:58:12.739Z,9.661658
2022-08-18T07:59:11.719Z,9.661440
2022-08-18T08:00:23.122Z,9.661301
2022-08-18T08:01:12.691Z,9.661224
2022-08-18T08:02:11.735Z,9.661472
2022-08-18T08:03:11.663Z,9.661629
2022-08-18T08:04:25.474Z,9.661493
2022-08-18T08:05:12.686Z,9.661586
2022-08-18T08:06:11.660Z,9.661525
2022-08-18T08:07:26.507Z,9.661629
2022-08-18T08:08:13.653Z,9.661416
2022-08-18T08:09:11.663Z,9.661560
2022-08-18T08:10:11.663Z,9.661567
2022-08-18T08:11:11.675Z,9.661325
2022-08-18T08:12:11.639Z,9.661616
2022-08-18T08:13:11.625Z,9.661515
2022-08-18T08:14:11.656Z,9.661660
2022-08-18T08:15:11.620Z,9.661695
2022-08-18T08:16:11.618Z,9.661656
2022-08-18T08:17:11.612Z,9.661586
2022-08-18T08:18:11.680Z,9.661568
2022-08-18T08:19:12.164Z,9.661555
2022-08-18T08:20:11.591Z,9.661539
2022-08-18T08:21:11.585Z,9.661567
2022-08-18T08:22:11.591Z,9.661528
2022-08-18T08:23:11.568Z,9.661555
2022-08-18T08:24:11.572Z,9.661607
2022-08-18T08:25:35.178Z,9.661612
2022-08-18T08:26:13.592Z,9.661675
2022-08-18T08:27:11.566Z,9.661619
2022-08-18T08:28:12.316Z,9.661607
2022-08-18T08:29:11.601Z,9.661583
2022-08-18T08:30:11.641Z,9.661537
2022-08-18T08:31:35.942Z,9.661553
2022-08-18T08:32:13.568Z,9.661515
2022-08-18T08:33:11.526Z,9.661552
2022-08-18T08:34:11.520Z,9.661560
2022-08-18T08:35:16.040Z,9.661635
2022-08-18T08:36:12.530Z,9.661533
2022-08-18T08:37:11.513Z,9.661525
2022-08-18T08:38:39.241Z,9.661592
2022-08-18T08:39:13.486Z,9.661479
2022-08-18T08:40:11.616Z,9.661551
2022-08-18T08:41:11.586Z,9.661487
2022-08-18T08:42:31.350Z,9.661506
2022-08-18T08:43:11.468Z,9.661503
2022-08-18T08:44:11.467Z,9.661505
2022-08-18T08:45:11.463Z,9.661474
2022-08-18T08:46:11.452Z,9.661511
2022-08-18T08:47:11.482Z,9.661635
2022-08-18T08:48:11.457Z,9.661750
2022-08-18T08:49:11.447Z,9.661596
2022-08-18T08:50:11.420Z,9.661594
2022-08-18T08:51:11.427Z,9.661492
2022-08-18T08:52:11.465Z,9.661497
2022-08-18T08:53:11.420Z,9.661434
2022-08-18T08:54:11.406Z,9.661449
2022-08-18T08:55:11.384Z,9.661472
2022-08-18T08:56:12.411Z,9.661313
2022-08-18T08:57:11.409Z,9.661324
2022-08-18T08:58:11.428Z,9.661479
2022-08-18T08:59:11.380Z,9.661332
2022-08-18T09:00:11.388Z,9.661580
2022-08-18T09:01:11.376Z,9.661625
2022-08-18T09:02:22.649Z,9.661407
2022-08-18T09:03:12.374Z,9.661391
2022-08-18T09:04:11.356Z,9.661683
2022-08-18T09:05:11.354Z,9.661637
2022-08-18T09:06:11.348Z,9.661601
2022-08-18T09:07:11.376Z,9.661578
2022-08-18T09:08:11.335Z,9.661919
2022-08-18T09:09:11.363Z,9.662097
2022-08-18T09:10:11.323Z,9.662278
2022-08-18T09:11:11.325Z,9.662024
2022-08-18T09:12:11.313Z,9.661910
2022-08-18T09:13:11.314Z,9.661738
2022-08-18T09:14:11.326Z,9.661705
2022-08-18T09:15:11.298Z,9.661601
2022-08-18T09:16:13.485Z,9.661450
2022-08-18T09:17:11.303Z,9.662094
2022-08-18T09:18:11.276Z,9.662141
2022-08-18T09:19:11.269Z,9.662109
2022-08-18T09:20:11.386Z,9.661659
2022-08-18T09:21:11.271Z,9.661648
2022-08-18T09:22:11.265Z,9.661621
2022-08-18T09:23:11.253Z,9.661656
2022-08-18T09:24:11.252Z,9.661630
2022-08-18T09:25:11.276Z,9.661532
2022-08-18T09:26:11.246Z,9.661610
2022-08-18T09:27:11.231Z,9.661681
2022-08-18T09:28:11.810Z,9.661696
2022-08-18T09:29:11.216Z,9.661622
2022-08-18T09:30:11.233Z,9.661512
2022-08-18T09:31:11.323Z,9.661506
2022-08-18T09:32:11.732Z,9.661543
2022-08-18T09:33:18.861Z,9.661543
2022-08-18T09:34:12.195Z,9.661498
2022-08-18T09:35:11.179Z,9.661541
2022-08-18T09:36:11.320Z,9.661524
2022-08-18T09:37:11.202Z,9.661505
2022-08-18T09:38:11.360Z,9.661515
2022-08-18T09:39:11.168Z,9.661514
2022-08-18T09:40:12.857Z,9.661551
2022-08-18T09:41:11.215Z,9.661502
2022-08-18T09:42:11.246Z,9.661429
2022-08-18T09:43:11.144Z,9.661501
2022-08-18T09:45:12.134Z,9.661568
2022-08-18T09:47:43.189Z,9.661543
2022-08-18T09:48:11.136Z,9.661509
2022-08-18T09:49:11.119Z,9.661566
2022-08-18T09:50:24.536Z,9.661667
2022-08-18T09:51:12.092Z,9.661678
2022-08-18T09:52:11.086Z,9.661611
2022-08-18T09:53:11.201Z,9.661536
2022-08-18T09:54:11.060Z,9.661696
2022-08-18T09:55:11.076Z,9.661574
2022-08-18T09:56:11.058Z,9.661575
2022-08-18T09:57:11.067Z,9.661537
2022-08-18T09:58:11.046Z,9.661551
2022-08-18T09:59:11.311Z,9.661513
2022-08-18T10:00:11.036Z,9.661552
2022-08-18T10:01:11.071Z,9.661584
2022-08-18T10:02:18.826Z,9.661710
2022-08-18T10:03:12.046Z,9.661632
2022-08-18T10:04:12.161Z,9.661643
2022-08-18T10:05:11.002Z,9.661547
2022-08-18T10:06:12.526Z,9.661595
2022-08-18T10:07:10.992Z,9.661572
2022-08-18T10:08:10.992Z,9.661456
2022-08-18T10:09:14.702Z,9.661417
2022-08-18T10:10:12.971Z,9.661573
2022-08-18T10:11:11.974Z,9.661567
2022-08-18T10:12:16.010Z,9.661608
2022-08-18T10:13:10.957Z,9.661618
2022-08-18T10:14:10.985Z,9.661476
2022-08-18T10:15:10.961Z,9.661388
2022-08-18T10:16:11.387Z,9.661448
2022-08-18T10:17:23.338Z,9.661530
2022-08-18T10:18:12.960Z,9.661436
2022-08-18T10:19:10.973Z,9.661398
2022-08-18T10:20:25.967Z,9.661399
2022-08-18T10:21:11.936Z,9.661490
2022-08-18T10:22:10.935Z,9.661527
2022-08-18T10:23:10.919Z,9.661530
2022-08-18T10:25:22.834Z,9.661509
2022-08-18T10:26:13.450Z,9.661470
2022-08-18T10:27:11.897Z,9.661460
2022-08-18T10:28:11.946Z,9.661510
2022-08-18T10:29:10.895Z,9.661653
2022-08-18T10:30:12.206Z,9.661565
2022-08-18T10:31:10.875Z,9.661536
2022-08-18T10:32:14.228Z,9.661650
2022-08-18T10:33:18.344Z,9.661605
2022-08-18T10:34:19.258Z,9.661509
2022-08-18T10:35:12.953Z,9.661318
2022-08-18T10:36:11.152Z,9.661532
2022-08-18T10:37:10.825Z,9.661402
2022-08-18T10:38:10.850Z,9.661505
2022-08-18T10:39:10.849Z,9.661484
2022-08-18T10:41:15.430Z,9.661536
2022-08-18T10:42:11.066Z,9.661589
2022-08-18T10:43:45.986Z,9.661637
2022-08-18T10:44:28.252Z,9.661621
2022-08-18T10:45:12.807Z,9.661512
2022-08-18T10:46:29.449Z,9.661466
2022-08-18T10:47:12.778Z,9.661450
2022-08-18T10:48:16.876Z,9.661732
2022-08-18T10:49:10.767Z,9.661572
2022-08-18T10:50:10.890Z,9.661473
2022-08-18T10:51:10.758Z,9.661661
2022-08-18T10:52:10.803Z,9.661393
2022-08-18T10:53:38.527Z,9.661439
2022-08-18T10:54:12.752Z,9.661594
2022-08-18T10:55:11.755Z,9.661533
2022-08-18T10:56:10.738Z,9.661619
2022-08-18T10:57:10.906Z,9.661668
2022-08-18T10:58:10.719Z,9.661693
2022-08-18T10:59:16.087Z,9.661545
2022-08-18T11:00:10.864Z,9.661470
2022-08-18T11:01:10.696Z,9.661665
2022-08-18T11:02:10.717Z,9.661490
2022-08-18T11:04:14.379Z,9.661424
2022-08-18T11:05:10.682Z,9.661538
2022-08-18T11:06:14.554Z,9.661571
2022-08-18T11:07:11.672Z,9.661476
2022-08-18T11:08:15.570Z,9.661528
2022-08-18T11:09:11.674Z,9.661507
2022-08-18T11:10:28.581Z,9.661247
2022-08-18T11:11:34.151Z,9.661203
2022-08-18T11:12:12.636Z,9.661448
2022-08-18T11:13:10.639Z,9.661224
2022-08-18T11:14:10.667Z,9.661362
2022-08-18T11:15:23.090Z,9.661279
2022-08-18T11:16:13.320Z,9.661291
2022-08-18T11:17:10.623Z,9.661595
2022-08-18T11:18:10.820Z,9.661460
2022-08-18T11:19:11.384Z,9.661458
2022-08-18T11:20:10.597Z,9.661710
2022-08-18T11:21:13.671Z,9.661683
2022-08-18T11:23:11.574Z,9.661630
2022-08-18T11:24:11.608Z,9.661510
2022-08-18T11:25:11.623Z,9.661567
2022-08-18T11:26:10.568Z,9.661448
2022-08-18T11:27:15.415Z,9.661485
2022-08-18T11:28:11.569Z,9.661455
2022-08-18T11:29:10.542Z,9.661535
2022-08-18T11:30:13.461Z,9.661546
2022-08-18T11:31:10.545Z,9.661688
2022-08-18T11:33:11.522Z,9.661483
2022-08-18T11:34:11.860Z,9.661579
2022-08-18T11:35:11.545Z,9.661505
2022-08-18T11:36:10.520Z,9.661474
2022-08-18T11:37:10.505Z,9.661376
2022-08-18T11:38:12.390Z,9.661549
2022-08-18T11:39:10.501Z,9.661556
2022-08-18T11:40:14.074Z,9.661559
2022-08-18T11:41:12.895Z,9.661559
2022-08-18T11:42:15.784Z,9.661642
2022-08-18T11:43:11.560Z,9.661480
2022-08-18T11:44:10.474Z,9.661571
2022-08-18T11:45:10.476Z,9.661652
2022-08-18T11:46:10.455Z,9.661574
2022-08-18T11:47:10.586Z,9.661385
2022-08-18T11:48:10.453Z,9.661641
2022-08-18T11:49:11.456Z,9.661565
2022-08-18T11:50:10.451Z,9.661631
2022-08-18T11:51:10.437Z,9.661566